sensor_id;sensor_type;location;lat;lon;timestamp;pressure;altitude;pressure_sealevel;temperature;humidity
77077;BME280;66003;52.286;104.306;2022-12-18T00:01:50;97132.00;;;-16.00;55.74
77077;BME280;66003;52.286;104.306;2022-12-18T00:04:24;97145.88;;;-16.04;55.68
77077;BME280;66003;52.286;104.306;2022-12-18T00:06:50;97153.25;;;-16.26;56.35
77077;BME280;66003;52.286;104.306;2022-12-18T00:09:16;97170.44;;;-16.28;57.75
77077;BME280;66003;52.286;104.306;2022-12-18T00:11:43;97117.03;;;-16.61;58.16
77077;BME280;66003;52.286;104.306;2022-12-18T00:14:12;97167.91;;;-16.28;59.12
77077;BME280;66003;52.286;104.306;2022-12-18T00:16:39;97143.97;;;-16.41;58.55
77077;BME280;66003;52.286;104.306;2022-12-18T00:19:06;97166.75;;;-16.10;57.83
77077;BME280;66003;52.286;104.306;2022-12-18T00:21:33;97139.28;;;-16.35;56.80
77077;BME280;66003;52.286;104.306;2022-12-18T00:24:00;97143.00;;;-16.53;57.14
77077;BME280;66003;52.286;104.306;2022-12-18T00:26:28;97165.69;;;-16.34;56.80
77077;BME280;66003;52.286;104.306;2022-12-18T00:28:58;97169.56;;;-16.41;56.85
77077;BME280;66003;52.286;104.306;2022-12-18T00:31:25;97167.53;;;-16.51;56.38
77077;BME280;66003;52.286;104.306;2022-12-18T00:33:54;97178.00;;;-16.68;57.68
77077;BME280;66003;52.286;104.306;2022-12-18T00:36:26;97169.00;;;-16.61;57.21
77077;BME280;66003;52.286;104.306;2022-12-18T00:38:54;97179.22;;;-16.61;57.35
77077;BME280;66003;52.286;104.306;2022-12-18T00:41:21;97163.13;;;-16.75;57.35
77077;BME280;66003;52.286;104.306;2022-12-18T00:44:07;97183.66;;;-16.77;57.95
77077;BME280;66003;52.286;104.306;2022-12-18T00:46:34;97141.66;;;-17.01;57.67
77077;BME280;66003;52.286;104.306;2022-12-18T00:49:01;97151.16;;;-16.89;56.53
77077;BME280;66003;52.286;104.306;2022-12-18T00:51:27;97170.06;;;-16.77;56.47
77077;BME280;66003;52.286;104.306;2022-12-18T00:53:53;97181.63;;;-16.72;56.71
77077;BME280;66003;52.286;104.306;2022-12-18T00:56:23;97133.25;;;-17.03;57.48
77077;BME280;66003;52.286;104.306;2022-12-18T00:58:49;97164.84;;;-16.76;57.22
77077;BME280;66003;52.286;104.306;2022-12-18T01:01:16;97166.78;;;-16.65;56.63
77077;BME280;66003;52.286;104.306;2022-12-18T01:03:42;97141.47;;;-16.84;56.54
77077;BME280;66003;52.286;104.306;2022-12-18T01:06:13;97138.56;;;-16.92;57.10
77077;BME280;66003;52.286;104.306;2022-12-18T01:08:39;97164.38;;;-16.68;56.49
77077;BME280;66003;52.286;104.306;2022-12-18T01:11:11;97181.50;;;-16.42;56.20
77077;BME280;66003;52.286;104.306;2022-12-18T01:13:38;97166.03;;;-16.67;56.57
77077;BME280;66003;52.286;104.306;2022-12-18T01:16:05;97181.69;;;-16.45;56.16
77077;BME280;66003;52.286;104.306;2022-12-18T01:18:31;97138.44;;;-16.62;56.22
77077;BME280;66003;52.286;104.306;2022-12-18T01:20:58;97186.41;;;-16.39;55.82
77077;BME280;66003;52.286;104.306;2022-12-18T01:23:27;97171.19;;;-16.40;55.49
77077;BME280;66003;52.286;104.306;2022-12-18T01:25:53;97189.09;;;-16.40;55.44
77077;BME280;66003;52.286;104.306;2022-12-18T01:28:19;97174.91;;;-16.18;55.04
77077;BME280;66003;52.286;104.306;2022-12-18T01:30:46;97134.53;;;-16.27;54.66
77077;BME280;66003;52.286;104.306;2022-12-18T01:33:12;97180.06;;;-15.51;54.52
77077;BME280;66003;52.286;104.306;2022-12-18T01:35:42;97177.03;;;-15.18;53.44
77077;BME280;66003;52.286;104.306;2022-12-18T01:38:08;97133.91;;;-14.86;51.81
77077;BME280;66003;52.286;104.306;2022-12-18T01:40:35;97175.66;;;-14.22;50.21
77077;BME280;66003;52.286;104.306;2022-12-18T01:43:01;97156.28;;;-13.66;50.61
77077;BME280;66003;52.286;104.306;2022-12-18T01:45:29;97148.72;;;-13.57;48.84
77077;BME280;66003;52.286;104.306;2022-12-18T01:48:01;97174.00;;;-13.04;47.92
77077;BME280;66003;52.286;104.306;2022-12-18T01:50:40;97165.19;;;-12.78;48.38
77077;BME280;66003;52.286;104.306;2022-12-18T01:55:50;97172.59;;;-12.40;47.03
77077;BME280;66003;52.286;104.306;2022-12-18T01:58:18;97173.03;;;-12.13;46.46
77077;BME280;66003;52.286;104.306;2022-12-18T02:00:46;97136.97;;;-12.01;44.52
77077;BME280;66003;52.286;104.306;2022-12-18T02:03:13;97165.13;;;-11.78;45.29
77077;BME280;66003;52.286;104.306;2022-12-18T02:14:07;97169.47;;;-11.14;43.86
77077;BME280;66003;52.286;104.306;2022-12-18T02:19:36;97174.84;;;-11.38;41.11
77077;BME280;66003;52.286;104.306;2022-12-18T02:22:44;97178.97;;;-11.79;41.69
77077;BME280;66003;52.286;104.306;2022-12-18T02:27:58;97150.09;;;-11.61;41.95
77077;BME280;66003;52.286;104.306;2022-12-18T02:30:27;97148.97;;;-11.48;41.71
77077;BME280;66003;52.286;104.306;2022-12-18T02:32:55;97156.38;;;-11.22;40.81
77077;BME280;66003;52.286;104.306;2022-12-18T02:35:25;97166.34;;;-10.76;41.49
77077;BME280;66003;52.286;104.306;2022-12-18T02:37:54;97182.25;;;-10.71;41.35
77077;BME280;66003;52.286;104.306;2022-12-18T02:40:21;97178.69;;;-11.33;39.80
77077;BME280;66003;52.286;104.306;2022-12-18T02:42:48;97135.34;;;-11.39;40.74
77077;BME280;66003;52.286;104.306;2022-12-18T02:45:15;97136.28;;;-12.15;40.69
77077;BME280;66003;52.286;104.306;2022-12-18T02:47:43;97155.97;;;-13.27;42.62
77077;BME280;66003;52.286;104.306;2022-12-18T02:56:19;97188.47;;;-14.72;46.15
77077;BME280;66003;52.286;104.306;2022-12-18T03:02:20;97192.56;;;-14.82;47.22
77077;BME280;66003;52.286;104.306;2022-12-18T03:04:30;97189.28;;;-14.96;47.81
77077;BME280;66003;52.286;104.306;2022-12-18T03:07:03;97193.44;;;-15.21;50.13
77077;BME280;66003;52.286;104.306;2022-12-18T03:09:43;97141.78;;;-15.27;48.81
77077;BME280;66003;52.286;104.306;2022-12-18T03:15:12;97192.31;;;-15.17;50.87
77077;BME280;66003;52.286;104.306;2022-12-18T03:17:44;97177.38;;;-15.23;51.58
77077;BME280;66003;52.286;104.306;2022-12-18T03:20:16;97139.13;;;-15.26;50.15
77077;BME280;66003;52.286;104.306;2022-12-18T03:22:46;97162.41;;;-14.91;49.61
77077;BME280;66003;52.286;104.306;2022-12-18T03:25:13;97176.97;;;-14.91;49.48
77077;BME280;66003;52.286;104.306;2022-12-18T03:27:46;97175.34;;;-14.80;49.85
77077;BME280;66003;52.286;104.306;2022-12-18T03:30:14;97183.34;;;-14.59;49.78
77077;BME280;66003;52.286;104.306;2022-12-18T03:35:57;97165.28;;;-14.45;52.15
77077;BME280;66003;52.286;104.306;2022-12-18T03:38:23;97142.31;;;-14.22;50.79
77077;BME280;66003;52.286;104.306;2022-12-18T03:41:15;97172.91;;;-13.83;49.95
77077;BME280;66003;52.286;104.306;2022-12-18T03:43:51;97169.66;;;-13.74;49.49
77077;BME280;66003;52.286;104.306;2022-12-18T03:50:44;97149.88;;;-13.61;49.39
77077;BME280;66003;52.286;104.306;2022-12-18T03:55:30;97147.56;;;-13.53;49.35
77077;BME280;66003;52.286;104.306;2022-12-18T03:57:59;97137.91;;;-13.49;49.29
77077;BME280;66003;52.286;104.306;2022-12-18T04:00:26;97130.94;;;-13.36;49.18
77077;BME280;66003;52.286;104.306;2022-12-18T04:02:55;97133.28;;;-13.33;49.99
77077;BME280;66003;52.286;104.306;2022-12-18T04:05:24;97148.88;;;-13.23;49.50
77077;BME280;66003;52.286;104.306;2022-12-18T04:07:51;97092.28;;;-13.34;49.48
77077;BME280;66003;52.286;104.306;2022-12-18T04:10:19;97115.09;;;-13.19;49.97
77077;BME280;66003;52.286;104.306;2022-12-18T04:12:45;97132.41;;;-12.98;50.24
77077;BME280;66003;52.286;104.306;2022-12-18T04:15:13;97129.34;;;-13.03;49.84
77077;BME280;66003;52.286;104.306;2022-12-18T04:17:46;97132.25;;;-13.08;50.16
77077;BME280;66003;52.286;104.306;2022-12-18T04:20:13;97079.16;;;-13.42;51.01
77077;BME280;66003;52.286;104.306;2022-12-18T04:22:39;97132.44;;;-12.87;50.42
77077;BME280;66003;52.286;104.306;2022-12-18T04:25:05;97087.88;;;-12.99;50.79
77077;BME280;66003;52.286;104.306;2022-12-18T04:27:31;97077.22;;;-12.94;51.75
77077;BME280;66003;52.286;104.306;2022-12-18T04:29:57;97095.72;;;-12.67;50.66
77077;BME280;66003;52.286;104.306;2022-12-18T04:32:23;97101.34;;;-12.51;50.77
77077;BME280;66003;52.286;104.306;2022-12-18T04:34:49;97064.84;;;-12.56;50.43
77077;BME280;66003;52.286;104.306;2022-12-18T04:37:15;97090.53;;;-12.22;50.64
77077;BME280;66003;52.286;104.306;2022-12-18T04:39:41;97063.50;;;-12.17;50.17
77077;BME280;66003;52.286;104.306;2022-12-18T04:42:07;97055.22;;;-11.99;50.32
77077;BME280;66003;52.286;104.306;2022-12-18T04:44:33;97079.91;;;-11.86;51.86
77077;BME280;66003;52.286;104.306;2022-12-18T04:46:59;97091.84;;;-11.64;51.73
77077;BME280;66003;52.286;104.306;2022-12-18T04:49:26;97084.03;;;-11.42;51.47
77077;BME280;66003;52.286;104.306;2022-12-18T04:51:52;97057.97;;;-11.18;50.91
77077;BME280;66003;52.286;104.306;2022-12-18T04:54:18;97076.09;;;-10.87;50.41
77077;BME280;66003;52.286;104.306;2022-12-18T04:56:44;97028.25;;;-10.91;50.19
77077;BME280;66003;52.286;104.306;2022-12-18T04:59:10;97068.22;;;-10.55;49.91
77077;BME280;66003;52.286;104.306;2022-12-18T05:01:36;97045.94;;;-10.47;49.51
77077;BME280;66003;52.286;104.306;2022-12-18T05:04:02;97045.72;;;-10.34;49.75
77077;BME280;66003;52.286;104.306;2022-12-18T05:06:29;97043.69;;;-10.31;49.58
77077;BME280;66003;52.286;104.306;2022-12-18T05:08:55;97052.41;;;-10.22;50.48
77077;BME280;66003;52.286;104.306;2022-12-18T05:11:21;97051.44;;;-10.02;49.88
77077;BME280;66003;52.286;104.306;2022-12-18T05:13:47;97048.09;;;-9.93;50.43
77077;BME280;66003;52.286;104.306;2022-12-18T05:16:14;97046.72;;;-9.77;50.93
77077;BME280;66003;52.286;104.306;2022-12-18T05:18:40;97025.75;;;-9.84;50.19
77077;BME280;66003;52.286;104.306;2022-12-18T05:21:06;97001.69;;;-9.85;50.02
77077;BME280;66003;52.286;104.306;2022-12-18T05:23:33;97036.94;;;-9.45;50.01
77077;BME280;66003;52.286;104.306;2022-12-18T05:26:01;97005.75;;;-9.53;49.65
77077;BME280;66003;52.286;104.306;2022-12-18T05:28:28;97017.16;;;-9.27;49.54
77077;BME280;66003;52.286;104.306;2022-12-18T05:30:56;97019.72;;;-9.27;49.55
77077;BME280;66003;52.286;104.306;2022-12-18T05:33:24;96980.16;;;-9.46;49.93
77077;BME280;66003;52.286;104.306;2022-12-18T05:35:52;97020.66;;;-9.18;50.15
77077;BME280;66003;52.286;104.306;2022-12-18T05:38:19;96990.84;;;-9.32;50.18
77077;BME280;66003;52.286;104.306;2022-12-18T05:40:47;97009.91;;;-9.14;50.15
77077;BME280;66003;52.286;104.306;2022-12-18T05:43:14;96917.84;;;-9.72;50.59
77077;BME280;66003;52.286;104.306;2022-12-18T05:45:40;97001.88;;;-9.20;50.84
77077;BME280;66003;52.286;104.306;2022-12-18T05:48:07;96987.00;;;-9.18;51.32
77077;BME280;66003;52.286;104.306;2022-12-18T05:50:37;97006.34;;;-9.13;53.18
77077;BME280;66003;52.286;104.306;2022-12-18T05:53:04;96991.78;;;-9.14;51.52
77077;BME280;66003;52.286;104.306;2022-12-18T05:55:35;96991.50;;;-9.20;51.69
77077;BME280;66003;52.286;104.306;2022-12-18T05:58:03;96955.44;;;-9.22;50.91
77077;BME280;66003;52.286;104.306;2022-12-18T06:00:30;96986.84;;;-8.97;51.76
77077;BME280;66003;52.286;104.306;2022-12-18T06:02:58;96939.09;;;-9.22;51.39
77077;BME280;66003;52.286;104.306;2022-12-18T06:05:25;96871.16;;;-9.61;51.04
77077;BME280;66003;52.286;104.306;2022-12-18T06:07:51;96975.34;;;-8.95;51.96
77077;BME280;66003;52.286;104.306;2022-12-18T06:10:17;96973.41;;;-8.83;51.61
77077;BME280;66003;52.286;104.306;2022-12-18T06:12:43;96952.81;;;-8.85;51.13
77077;BME280;66003;52.286;104.306;2022-12-18T06:15:10;96957.06;;;-8.84;51.33
77077;BME280;66003;52.286;104.306;2022-12-18T06:17:36;96960.66;;;-8.67;51.12
77077;BME280;66003;52.286;104.306;2022-12-18T06:20:04;96952.34;;;-8.70;51.42
77077;BME280;66003;52.286;104.306;2022-12-18T06:22:33;96923.56;;;-8.85;51.33
77077;BME280;66003;52.286;104.306;2022-12-18T06:25:00;96922.09;;;-8.70;51.27
77077;BME280;66003;52.286;104.306;2022-12-18T06:27:26;96909.81;;;-8.68;50.94
77077;BME280;66003;52.286;104.306;2022-12-18T06:29:53;96927.31;;;-8.52;51.45
77077;BME280;66003;52.286;104.306;2022-12-18T06:32:19;96933.59;;;-8.37;50.48
77077;BME280;66003;52.286;104.306;2022-12-18T06:34:45;96933.19;;;-8.32;50.73
77077;BME280;66003;52.286;104.306;2022-12-18T06:37:11;96938.53;;;-8.26;50.48
77077;BME280;66003;52.286;104.306;2022-12-18T06:39:37;96948.47;;;-8.21;50.09
77077;BME280;66003;52.286;104.306;2022-12-18T06:42:03;96902.00;;;-8.41;49.96
77077;BME280;66003;52.286;104.306;2022-12-18T06:44:29;96934.78;;;-8.14;49.83
77077;BME280;66003;52.286;104.306;2022-12-18T06:46:55;96947.97;;;-8.07;49.81
77077;BME280;66003;52.286;104.306;2022-12-18T06:49:21;96938.84;;;-8.11;49.45
77077;BME280;66003;52.286;104.306;2022-12-18T06:51:48;96934.78;;;-8.14;49.57
77077;BME280;66003;52.286;104.306;2022-12-18T06:54:15;96940.28;;;-8.17;49.77
77077;BME280;66003;52.286;104.306;2022-12-18T06:56:47;96928.03;;;-8.24;50.26
77077;BME280;66003;52.286;104.306;2022-12-18T06:59:14;96894.25;;;-8.41;50.36
77077;BME280;66003;52.286;104.306;2022-12-18T07:01:41;96911.91;;;-8.18;49.92
77077;BME280;66003;52.286;104.306;2022-12-18T07:04:07;96887.91;;;-8.20;49.66
77077;BME280;66003;52.286;104.306;2022-12-18T07:06:33;96916.78;;;-7.97;49.01
77077;BME280;66003;52.286;104.306;2022-12-18T07:08:59;96938.41;;;-7.89;48.92
77077;BME280;66003;52.286;104.306;2022-12-18T07:11:25;96929.38;;;-7.85;48.65
77077;BME280;66003;52.286;104.306;2022-12-18T07:13:52;96892.56;;;-8.06;48.42
77077;BME280;66003;52.286;104.306;2022-12-18T07:16:20;96923.59;;;-7.79;48.73
77077;BME280;66003;52.286;104.306;2022-12-18T07:18:47;96908.63;;;-7.85;48.69
77077;BME280;66003;52.286;104.306;2022-12-18T07:21:16;96917.63;;;-7.71;48.73
77077;BME280;66003;52.286;104.306;2022-12-18T07:23:42;96933.72;;;-7.68;48.60
77077;BME280;66003;52.286;104.306;2022-12-18T07:26:11;96922.69;;;-7.70;48.47
77077;BME280;66003;52.286;104.306;2022-12-18T07:28:49;96910.78;;;-7.80;48.68
77077;BME280;66003;52.286;104.306;2022-12-18T07:31:27;96892.09;;;-7.84;48.63
77077;BME280;66003;52.286;104.306;2022-12-18T07:33:53;96903.00;;;-7.80;49.53
77077;BME280;66003;52.286;104.306;2022-12-18T07:36:22;96922.97;;;-7.73;49.60
77077;BME280;66003;52.286;104.306;2022-12-18T07:38:49;96905.22;;;-7.85;48.96
77077;BME280;66003;52.286;104.306;2022-12-18T07:41:17;96899.22;;;-7.86;48.41
77077;BME280;66003;52.286;104.306;2022-12-18T07:43:44;96864.88;;;-8.06;48.73
77077;BME280;66003;52.286;104.306;2022-12-18T07:46:12;96908.75;;;-7.86;48.89
77077;BME280;66003;52.286;104.306;2022-12-18T07:48:42;96850.94;;;-8.22;48.65
77077;BME280;66003;52.286;104.306;2022-12-18T07:51:09;96877.31;;;-8.09;48.92
77077;BME280;66003;52.286;104.306;2022-12-18T07:53:36;96911.59;;;-7.97;49.34
77077;BME280;66003;52.286;104.306;2022-12-18T07:56:05;96911.88;;;-8.01;49.50
77077;BME280;66003;52.286;104.306;2022-12-18T07:58:33;96887.69;;;-8.27;49.66
77077;BME280;66003;52.286;104.306;2022-12-18T08:01:08;96866.16;;;-8.45;49.45
77077;BME280;66003;52.286;104.306;2022-12-18T08:03:35;96905.63;;;-8.33;50.25
77077;BME280;66003;52.286;104.306;2022-12-18T08:06:05;96863.50;;;-8.53;49.52
77077;BME280;66003;52.286;104.306;2022-12-18T08:08:32;96904.28;;;-8.38;49.71
77077;BME280;66003;52.286;104.306;2022-12-18T08:10:59;96906.00;;;-8.46;49.96
77077;BME280;66003;52.286;104.306;2022-12-18T08:13:25;96869.41;;;-8.79;50.94
77077;BME280;66003;52.286;104.306;2022-12-18T08:16:07;96897.53;;;-8.66;50.48
77077;BME280;66003;52.286;104.306;2022-12-18T08:18:35;96847.75;;;-9.05;51.10
77077;BME280;66003;52.286;104.306;2022-12-18T08:21:19;96853.22;;;-9.08;51.56
77077;BME280;66003;52.286;104.306;2022-12-18T08:23:47;96877.53;;;-8.91;51.21
77077;BME280;66003;52.286;104.306;2022-12-18T08:26:13;96871.88;;;-9.04;51.81
77077;BME280;66003;52.286;104.306;2022-12-18T08:28:40;96877.56;;;-9.01;51.78
77077;BME280;66003;52.286;104.306;2022-12-18T08:31:07;96883.66;;;-8.92;51.07
77077;BME280;66003;52.286;104.306;2022-12-18T08:33:34;96869.13;;;-9.03;51.31
77077;BME280;66003;52.286;104.306;2022-12-18T08:36:00;96875.72;;;-9.08;51.47
77077;BME280;66003;52.286;104.306;2022-12-18T08:38:27;96889.50;;;-9.18;52.49
77077;BME280;66003;52.286;104.306;2022-12-18T08:41:14;96880.81;;;-9.26;52.41
77077;BME280;66003;52.286;104.306;2022-12-18T08:43:41;96862.34;;;-9.41;52.16
77077;BME280;66003;52.286;104.306;2022-12-18T08:46:27;96883.19;;;-9.33;52.01
77077;BME280;66003;52.286;104.306;2022-12-18T08:48:56;96888.63;;;-9.36;51.54
77077;BME280;66003;52.286;104.306;2022-12-18T08:51:22;96888.53;;;-9.44;52.35
77077;BME280;66003;52.286;104.306;2022-12-18T08:53:48;96850.34;;;-9.69;52.85
77077;BME280;66003;52.286;104.306;2022-12-18T08:56:15;96856.75;;;-9.73;53.41
77077;BME280;66003;52.286;104.306;2022-12-18T08:58:41;96880.25;;;-9.57;53.56
77077;BME280;66003;52.286;104.306;2022-12-18T09:01:10;96875.88;;;-9.47;53.50
77077;BME280;66003;52.286;104.306;2022-12-18T09:03:37;96845.56;;;-9.64;52.31
77077;BME280;66003;52.286;104.306;2022-12-18T09:06:04;96838.66;;;-9.73;52.08
77077;BME280;66003;52.286;104.306;2022-12-18T09:08:34;96870.19;;;-9.60;52.53
77077;BME280;66003;52.286;104.306;2022-12-18T09:11:00;96871.69;;;-9.67;52.49
77077;BME280;66003;52.286;104.306;2022-12-18T09:13:26;96828.09;;;-9.99;53.01
77077;BME280;66003;52.286;104.306;2022-12-18T09:15:54;96869.28;;;-9.78;53.03
77077;BME280;66003;52.286;104.306;2022-12-18T09:18:22;96836.00;;;-10.01;53.07
77077;BME280;66003;52.286;104.306;2022-12-18T09:20:49;96850.97;;;-9.95;53.60
77077;BME280;66003;52.286;104.306;2022-12-18T09:23:18;96844.88;;;-10.03;54.58
77077;BME280;66003;52.286;104.306;2022-12-18T09:25:44;96846.34;;;-10.01;53.20
77077;BME280;66003;52.286;104.306;2022-12-18T09:28:19;96852.63;;;-10.03;54.56
77077;BME280;66003;52.286;104.306;2022-12-18T09:30:47;96861.31;;;-10.04;54.11
77077;BME280;66003;52.286;104.306;2022-12-18T09:33:14;96861.72;;;-10.09;54.40
77077;BME280;66003;52.286;104.306;2022-12-18T09:35:42;96816.25;;;-10.39;55.89
77077;BME280;66003;52.286;104.306;2022-12-18T09:38:11;96856.31;;;-10.25;56.78
77077;BME280;66003;52.286;104.306;2022-12-18T09:40:43;96834.59;;;-10.32;55.75
77077;BME280;66003;52.286;104.306;2022-12-18T09:43:24;96761.94;;;-10.76;55.59
77077;BME280;66003;52.286;104.306;2022-12-18T09:46:06;96851.03;;;-10.24;54.25
77077;BME280;66003;52.286;104.306;2022-12-18T09:48:42;96831.75;;;-10.48;55.71
77077;BME280;66003;52.286;104.306;2022-12-18T09:51:26;96848.03;;;-10.48;55.51
77077;BME280;66003;52.286;104.306;2022-12-18T09:54:00;96818.03;;;-10.78;55.96
77077;BME280;66003;52.286;104.306;2022-12-18T09:56:30;96846.69;;;-10.71;56.90
77077;BME280;66003;52.286;104.306;2022-12-18T10:01:24;96834.03;;;-10.93;56.65
77077;BME280;66003;52.286;104.306;2022-12-18T10:03:51;96858.38;;;-10.86;55.90
77077;BME280;66003;52.286;104.306;2022-12-18T10:06:23;96862.84;;;-10.88;56.12
77077;BME280;66003;52.286;104.306;2022-12-18T10:08:59;96863.66;;;-10.98;56.69
77077;BME280;66003;52.286;104.306;2022-12-18T10:14:22;96849.06;;;-11.08;58.59
77077;BME280;66003;52.286;104.306;2022-12-18T10:19:52;96832.75;;;-11.28;55.67
77077;BME280;66003;52.286;104.306;2022-12-18T10:22:57;96843.03;;;-11.38;56.92
77077;BME280;66003;52.286;104.306;2022-12-18T10:26:03;96846.13;;;-11.44;56.65
77077;BME280;66003;52.286;104.306;2022-12-18T10:28:42;96821.34;;;-11.75;58.18
77077;BME280;66003;52.286;104.306;2022-12-18T10:31:17;96803.88;;;-12.02;58.23
77077;BME280;66003;52.286;104.306;2022-12-18T10:33:44;96837.28;;;-11.91;57.48
77077;BME280;66003;52.286;104.306;2022-12-18T10:36:11;96847.28;;;-11.97;56.83
77077;BME280;66003;52.286;104.306;2022-12-18T10:38:37;96809.13;;;-12.34;56.06
77077;BME280;66003;52.286;104.306;2022-12-18T10:41:26;96841.34;;;-12.19;56.09
77077;BME280;66003;52.286;104.306;2022-12-18T10:44:12;96835.44;;;-12.30;56.26
77077;BME280;66003;52.286;104.306;2022-12-18T10:46:38;96826.56;;;-12.58;57.55
77077;BME280;66003;52.286;104.306;2022-12-18T10:49:05;96837.03;;;-12.50;57.17
77077;BME280;66003;52.286;104.306;2022-12-18T10:51:46;96837.25;;;-12.63;57.20
77077;BME280;66003;52.286;104.306;2022-12-18T10:54:29;96839.53;;;-12.81;57.69
77077;BME280;66003;52.286;104.306;2022-12-18T11:00:33;96839.69;;;-12.93;58.45
77077;BME280;66003;52.286;104.306;2022-12-18T11:03:02;96826.16;;;-13.06;58.63
77077;BME280;66003;52.286;104.306;2022-12-18T11:05:33;96814.63;;;-13.12;59.45
77077;BME280;66003;52.286;104.306;2022-12-18T11:08:00;96808.38;;;-13.09;58.66
77077;BME280;66003;52.286;104.306;2022-12-18T11:10:36;96771.94;;;-13.35;58.72
77077;BME280;66003;52.286;104.306;2022-12-18T11:13:25;96817.63;;;-13.07;58.46
77077;BME280;66003;52.286;104.306;2022-12-18T11:15:54;96810.38;;;-13.34;62.07
77077;BME280;66003;52.286;104.306;2022-12-18T11:21:11;96815.63;;;-13.24;62.18
77077;BME280;66003;52.286;104.306;2022-12-18T11:23:59;96821.69;;;-13.25;61.76
77077;BME280;66003;52.286;104.306;2022-12-18T11:26:34;96821.22;;;-13.30;60.93
77077;BME280;66003;52.286;104.306;2022-12-18T11:29:17;96815.50;;;-13.45;61.50
77077;BME280;66003;52.286;104.306;2022-12-18T11:31:43;96812.81;;;-13.32;59.43
77077;BME280;66003;52.286;104.306;2022-12-18T11:34:22;96829.09;;;-13.54;60.39
77077;BME280;66003;52.286;104.306;2022-12-18T11:36:49;96708.13;;;-14.50;60.76
77077;BME280;66003;52.286;104.306;2022-12-18T11:42:30;96830.03;;;-13.77;60.28
77077;BME280;66003;52.286;104.306;2022-12-18T11:47:55;96834.25;;;-13.99;58.06
77077;BME280;66003;52.286;104.306;2022-12-18T11:50:41;96834.44;;;-14.24;58.46
77077;BME280;66003;52.286;104.306;2022-12-18T11:53:13;96792.56;;;-14.47;58.31
77077;BME280;66003;52.286;104.306;2022-12-18T12:01:07;96826.31;;;-14.75;59.90
77077;BME280;66003;52.286;104.306;2022-12-18T12:04:01;96814.41;;;-14.76;59.77
77077;BME280;66003;52.286;104.306;2022-12-18T12:09:27;96815.59;;;-14.69;59.39
77077;BME280;66003;52.286;104.306;2022-12-18T12:17:24;96826.75;;;-15.05;58.84
77077;BME280;66003;52.286;104.306;2022-12-18T12:25:47;96809.22;;;-14.98;58.10
77077;BME280;66003;52.286;104.306;2022-12-18T12:33:46;96814.94;;;-15.19;59.90
77077;BME280;66003;52.286;104.306;2022-12-18T12:39:00;96809.59;;;-15.16;59.20
77077;BME280;66003;52.286;104.306;2022-12-18T12:41:31;96761.25;;;-15.44;59.08
77077;BME280;66003;52.286;104.306;2022-12-18T12:44:33;96805.44;;;-15.29;58.30
77077;BME280;66003;52.286;104.306;2022-12-18T12:47:10;96759.09;;;-15.61;57.93
77077;BME280;66003;52.286;104.306;2022-12-18T12:49:39;96807.13;;;-15.41;57.73
77077;BME280;66003;52.286;104.306;2022-12-18T12:52:13;96801.81;;;-15.38;57.31
77077;BME280;66003;52.286;104.306;2022-12-18T12:54:42;96787.00;;;-15.69;57.79
77077;BME280;66003;52.286;104.306;2022-12-18T12:57:11;96803.75;;;-15.65;57.64
77077;BME280;66003;52.286;104.306;2022-12-18T12:59:52;96758.38;;;-16.00;57.65
77077;BME280;66003;52.286;104.306;2022-12-18T13:02:30;96797.84;;;-15.79;58.32
77077;BME280;66003;52.286;104.306;2022-12-18T13:07:51;96796.66;;;-15.86;59.67
77077;BME280;66003;52.286;104.306;2022-12-18T13:10:31;96787.84;;;-15.82;59.09
77077;BME280;66003;52.286;104.306;2022-12-18T13:13:10;96780.03;;;-15.80;57.89
77077;BME280;66003;52.286;104.306;2022-12-18T13:15:45;96803.28;;;-15.70;57.81
77077;BME280;66003;52.286;104.306;2022-12-18T13:18:13;96761.84;;;-15.88;57.82
77077;BME280;66003;52.286;104.306;2022-12-18T13:20:49;96796.81;;;-15.76;59.29
77077;BME280;66003;52.286;104.306;2022-12-18T13:31:02;96794.03;;;-15.60;57.69
77077;BME280;66003;52.286;104.306;2022-12-18T13:36:01;96780.78;;;-15.91;58.12
77077;BME280;66003;52.286;104.306;2022-12-18T13:40:59;96807.09;;;-15.89;58.74
77077;BME280;66003;52.286;104.306;2022-12-18T13:43:31;96801.03;;;-15.88;58.14
77077;BME280;66003;52.286;104.306;2022-12-18T13:48:58;96751.06;;;-16.17;57.19
77077;BME280;66003;52.286;104.306;2022-12-18T13:51:26;96814.06;;;-16.03;56.87
77077;BME280;66003;52.286;104.306;2022-12-18T13:54:01;96766.44;;;-16.42;57.84
77077;BME280;66003;52.286;104.306;2022-12-18T13:56:31;96792.69;;;-16.15;57.69
77077;BME280;66003;52.286;104.306;2022-12-18T13:59:37;96792.38;;;-15.98;57.19
77077;BME280;66003;52.286;104.306;2022-12-18T14:04:39;96679.47;;;-16.92;56.71
77077;BME280;66003;52.286;104.306;2022-12-18T14:07:10;96788.28;;;-16.26;56.84
77077;BME280;66003;52.286;104.306;2022-12-18T14:09:45;96792.59;;;-16.14;56.50
77077;BME280;66003;52.286;104.306;2022-12-18T14:12:31;96762.16;;;-16.55;57.08
77077;BME280;66003;52.286;104.306;2022-12-18T14:15:40;96806.81;;;-16.35;56.66
77077;BME280;66003;52.286;104.306;2022-12-18T14:18:38;96783.63;;;-16.44;56.59
77077;BME280;66003;52.286;104.306;2022-12-18T14:21:18;96766.97;;;-16.75;56.70
77077;BME280;66003;52.286;104.306;2022-12-18T14:23:45;96795.91;;;-16.62;56.75
77077;BME280;66003;52.286;104.306;2022-12-18T14:28:51;96741.78;;;-17.07;56.71
77077;BME280;66003;52.286;104.306;2022-12-18T14:31:19;96747.63;;;-16.92;56.41
77077;BME280;66003;52.286;104.306;2022-12-18T14:33:45;96793.66;;;-16.67;56.10
77077;BME280;66003;52.286;104.306;2022-12-18T14:36:28;96807.84;;;-16.63;55.85
77077;BME280;66003;52.286;104.306;2022-12-18T14:38:58;96780.84;;;-16.92;57.09
77077;BME280;66003;52.286;104.306;2022-12-18T14:41:25;96774.81;;;-16.91;57.52